Digby, Canada
Current Conditions -  °F | °C
As of 1:00 PM on Thursday 18 Dec 2014 (Local Time) from CYZX Reporting Station
Rain Showers Rain Showers  
Wind Chill: 27°   Ceiling: 2100
Heat Index: 37°   Visibility: 8mi
Dew Point: 36°   Wind: 21mph
Humidity: 93%   Direction: 250°WSW
Pressure: 29.39"   Gusts: NA
Location:  44.6°N, 65.75°W
Report Text: CYZX 181700Z 25018KT 8SM -SHRA SCT009 OVC021 03/02 A2939 RMK SF3SC5 WNDY HILL 24010G16KT SLP952
Loading
Personal Weather Stations






























Interactive Weather Map New forecast layout! Learn more

10-Day Weather Forecast

Advertisements
Track Severe Weather on mobile